Time;durP1;ratioP1;P1;durP2;ratioP2;P2;SDS_P1;SDS_P2;PMS_P1;PMS_P2;Temp;Humidity;BMP_temperature;BMP_pressure;BME280_temperature;BME280_humidity;BME280_pressure;Samples;Min_cycle;Max_cycle;Signal;HPM_P1;HPM_P2
2023/05/20 00:01:35;;;;;;;69.27;31.03;;;9.90;99.90;;;;;;4435906;28;659658;-77
2023/05/20 00:04:22;;;;;;;67.77;30.70;;;9.90;99.90;;;;;;4444310;28;659413;-78
2023/05/20 00:07:09;;;;;;;66.37;31.73;;;9.90;99.90;;;;;;4444910;28;660404;-77
2023/05/20 00:09:57;;;;;;;66.07;30.40;;;9.90;99.90;;;;;;4409071;28;660281;-76
2023/05/20 00:12:46;;;;;;;66.30;29.70;;;10.00;99.90;;;;;;4435164;28;660173;-76
2023/05/20 00:15:33;;;;;;;64.50;29.83;;;10.00;99.90;;;;;;4414988;28;660995;-76
2023/05/20 00:18:20;;;;;;;65.00;28.67;;;9.90;99.90;;;;;;4418321;28;661470;-76
2023/05/20 00:21:07;;;;;;;61.27;28.33;;;9.90;99.90;;;;;;4434434;28;659907;-76
2023/05/20 00:23:55;;;;;;;66.97;29.27;;;9.90;99.90;;;;;;4437270;28;659601;-77
2023/05/20 00:26:42;;;;;;;66.40;28.60;;;9.90;99.90;;;;;;4410497;28;660699;-76
2023/05/20 00:29:30;;;;;;;66.93;29.53;;;9.90;99.90;;;;;;4436197;28;659581;-78
2023/05/20 00:32:18;;;;;;;63.33;28.03;;;9.90;99.90;;;;;;4421955;28;660567;-76
2023/05/20 00:35:06;;;;;;;66.23;29.67;;;9.90;99.90;;;;;;4428446;28;659832;-76
2023/05/20 00:37:53;;;;;;;60.43;28.67;;;9.80;99.90;;;;;;4440907;28;660660;-77
2023/05/20 00:40:41;;;;;;;76.50;30.43;;;9.80;99.90;;;;;;4421943;28;660265;-76
2023/05/20 00:43:28;;;;;;;65.00;29.83;;;9.80;99.90;;;;;;4442610;28;660791;-78
2023/05/20 00:46:17;;;;;;;75.05;30.35;;;9.80;99.90;;;;;;4427135;28;660175;-76
2023/05/20 00:49:04;;;;;;;72.23;30.43;;;9.80;99.90;;;;;;4438481;28;660003;-77
2023/05/20 00:51:51;;;;;;;62.60;28.07;;;9.80;99.90;;;;;;4422110;28;660128;-76
2023/05/20 00:54:38;;;;;;;65.15;27.17;;;9.70;99.90;;;;;;4437921;28;660560;-77
2023/05/20 00:57:26;;;;;;;51.73;24.87;;;9.80;99.90;;;;;;4422851;28;659649;-76
2023/05/20 01:00:13;;;;;;;47.53;22.40;;;9.80;99.90;;;;;;4442795;28;660100;-77
2023/05/20 01:03:02;;;;;;;50.27;23.73;;;9.80;99.90;;;;;;4421308;28;659892;-77
2023/05/20 01:05:49;;;;;;;51.88;23.38;;;9.90;99.90;;;;;;4443160;28;659866;-76
2023/05/20 01:08:36;;;;;;;46.17;22.23;;;9.80;99.90;;;;;;4418376;28;659894;-76
2023/05/20 01:11:26;;;;;;;48.57;21.90;;;9.90;99.90;;;;;;4440946;28;660571;-78
2023/05/20 01:14:13;;;;;;;48.97;23.23;;;9.80;99.90;;;;;;4416677;28;660481;-77
2023/05/20 01:17:01;;;;;;;50.37;23.73;;;9.80;99.90;;;;;;4419385;28;659643;-77
2023/05/20 01:19:49;;;;;;;49.67;22.27;;;9.80;99.90;;;;;;4440757;28;660955;-76
2023/05/20 01:22:39;;;;;;;43.13;21.00;;;9.80;99.90;;;;;;4418673;28;660518;-77
2023/05/20 01:25:26;;;;;;;41.53;20.87;;;9.80;99.90;;;;;;4422787;28;659361;-76
2023/05/20 01:28:16;;;;;;;39.70;19.70;;;9.80;99.90;;;;;;4439737;28;660393;-77
2023/05/20 01:31:04;;;;;;;38.17;18.53;;;9.90;99.90;;;;;;4414822;28;659401;-77
2023/05/20 01:33:54;;;;;;;37.13;17.83;;;9.90;99.90;;;;;;4412679;28;659799;-77
2023/05/20 01:36:41;;;;;;;33.97;16.57;;;9.90;99.90;;;;;;4420850;28;660494;-76
2023/05/20 01:39:30;;;;;;;32.23;16.37;;;10.00;99.90;;;;;;4439990;28;660518;-77
2023/05/20 01:42:17;;;;;;;33.43;16.17;;;10.00;99.90;;;;;;4415691;28;662355;-77
2023/05/20 01:45:05;;;;;;;32.57;16.20;;;10.00;99.90;;;;;;4435051;28;660970;-77
2023/05/20 01:47:52;;;;;;;29.83;14.80;;;10.10;99.90;;;;;;4410141;28;661378;-77
2023/05/20 01:50:40;;;;;;;26.10;14.13;;;10.10;99.90;;;;;;4432242;28;661066;-76
2023/05/20 01:53:28;;;;;;;29.07;13.80;;;10.10;99.90;;;;;;4444342;28;661118;-77
2023/05/20 01:56:17;;;;;;;25.97;14.20;;;10.10;99.90;;;;;;4420096;28;660614;-77
2023/05/20 01:59:04;;;;;;;23.50;13.00;;;10.10;99.90;;;;;;4442832;28;660378;-77
2023/05/20 02:01:52;;;;;;;24.40;13.63;;;10.10;99.90;;;;;;4418576;28;661022;-78
2023/05/20 02:04:41;;;;;;;26.80;13.20;;;10.10;99.90;;;;;;4443740;28;661393;-77
2023/05/20 02:07:28;;;;;;;26.40;12.73;;;10.10;99.90;;;;;;4416160;28;661622;-74
2023/05/20 02:10:15;;;;;;;24.63;12.87;;;10.10;99.90;;;;;;4425868;28;661089;-75
2023/05/20 02:13:04;;;;;;;22.00;11.87;;;10.10;99.90;;;;;;4444756;28;660875;-76
2023/05/20 02:15:51;;;;;;;25.33;12.23;;;10.20;99.90;;;;;;4421150;28;661534;-76
2023/05/20 02:18:38;;;;;;;23.07;12.00;;;10.20;99.90;;;;;;4435333;28;661642;-76
2023/05/20 02:21:26;;;;;;;23.30;12.13;;;10.20;99.90;;;;;;4416641;28;661142;-76
2023/05/20 02:24:13;;;;;;;23.07;12.23;;;10.20;99.90;;;;;;4444251;28;661683;-76
2023/05/20 02:27:02;;;;;;;20.95;11.23;;;10.20;99.90;;;;;;4417712;28;661688;-76
2023/05/20 02:29:50;;;;;;;22.17;11.40;;;10.20;99.90;;;;;;4443434;28;660894;-77
2023/05/20 02:32:38;;;;;;;22.05;11.45;;;10.30;99.90;;;;;;4412942;28;662006;-76
2023/05/20 02:35:25;;;;;;;22.07;11.00;;;10.20;99.90;;;;;;4429288;28;661329;-74
2023/05/20 02:38:12;;;;;;;18.83;11.00;;;10.20;99.90;;;;;;4264649;28;660110;-75
2023/05/20 02:41:03;;;;;;;19.37;11.23;;;10.20;99.90;;;;;;4260169;28;660943;-75
2023/05/20 02:43:50;;;;;;;22.53;11.10;;;10.30;99.90;;;;;;4368693;28;660846;-75
2023/05/20 02:46:39;;;;;;;19.77;10.73;;;10.30;99.90;;;;;;4444615;28;660148;-77
2023/05/20 02:49:26;;;;;;;17.80;10.80;;;10.30;99.90;;;;;;4422024;28;660698;-76
2023/05/20 02:52:14;;;;;;;19.67;11.17;;;10.30;99.90;;;;;;4442955;28;661767;-77
2023/05/20 02:55:02;;;;;;;22.37;12.20;;;10.40;99.90;;;;;;4427048;28;661156;-76
2023/05/20 02:57:49;;;;;;;21.50;12.07;;;10.30;99.90;;;;;;4439880;28;660025;-77
2023/05/20 03:00:39;;;;;;;22.73;12.40;;;10.30;99.90;;;;;;4421581;28;660361;-77
2023/05/20 03:03:28;;;;;;;23.90;13.63;;;10.40;99.90;;;;;;4420814;28;661038;-76
2023/05/20 03:06:15;;;;;;;25.83;12.73;;;10.40;99.90;;;;;;4420331;28;661096;-74
2023/05/20 03:09:02;;;;;;;23.37;12.93;;;10.40;99.90;;;;;;4442084;28;660455;-77
2023/05/20 03:11:49;;;;;;;23.80;13.37;;;10.40;99.90;;;;;;4443773;28;660380;-76
2023/05/20 03:14:37;;;;;;;26.63;13.50;;;10.40;99.90;;;;;;4420269;28;660970;-76
2023/05/20 03:17:24;;;;;;;21.70;12.03;;;10.40;99.90;;;;;;4440368;28;660042;-76
2023/05/20 03:20:14;;;;;;;23.00;11.90;;;10.50;99.90;;;;;;4420274;28;661174;-76
2023/05/20 03:23:01;;;;;;;22.03;12.97;;;10.50;99.90;;;;;;4413939;28;661065;-76
2023/05/20 03:25:48;;;;;;;20.73;12.33;;;10.50;99.90;;;;;;4436987;28;661475;-76
2023/05/20 03:28:36;;;;;;;23.00;12.77;;;10.50;99.90;;;;;;4421219;28;660417;-75
2023/05/20 03:31:23;;;;;;;23.87;12.33;;;10.60;99.90;;;;;;4444513;28;661303;-77
2023/05/20 03:34:10;;;;;;;21.53;12.27;;;10.60;99.90;;;;;;4416699;28;660950;-76
2023/05/20 03:36:59;;;;;;;19.07;10.80;;;10.60;99.90;;;;;;4442096;28;661000;-77
2023/05/20 03:39:46;;;;;;;20.40;11.00;;;10.70;99.90;;;;;;4414515;28;660633;-76
2023/05/20 03:42:34;;;;;;;20.47;11.83;;;10.70;99.90;;;;;;4438405;28;661558;-76
2023/05/20 03:45:21;;;;;;;19.77;11.00;;;10.70;99.90;;;;;;4412803;28;660826;-76
2023/05/20 03:48:08;;;;;;;18.30;10.30;;;10.80;99.90;;;;;;4440915;28;660551;-76
2023/05/20 03:50:55;;;;;;;19.52;10.43;;;10.80;99.90;;;;;;4415001;28;660996;-74
2023/05/20 03:53:44;;;;;;;19.23;10.83;;;10.90;99.90;;;;;;4441467;28;661486;-77
2023/05/20 03:56:31;;;;;;;17.53;10.10;;;10.90;99.90;;;;;;4420924;28;661092;-76
2023/05/20 03:59:21;;;;;;;19.93;10.67;;;10.90;99.90;;;;;;4438020;28;661485;-76
2023/05/20 04:02:09;;;;;;;19.00;11.07;;;11.00;99.90;;;;;;4413516;28;661112;-76
2023/05/20 04:04:56;;;;;;;15.30;9.97;;;11.00;99.90;;;;;;4415320;28;660940;-75
2023/05/20 04:07:43;;;;;;;17.33;10.33;;;11.00;99.90;;;;;;4440139;28;660679;-77
2023/05/20 04:10:32;;;;;;;19.60;10.40;;;11.10;99.90;;;;;;4419765;28;660573;-76
2023/05/20 04:13:20;;;;;;;17.60;10.53;;;11.10;99.90;;;;;;4436338;28;660841;-77
2023/05/20 04:16:07;;;;;;;14.90;9.97;;;11.10;99.90;;;;;;4415317;28;660888;-76
2023/05/20 04:18:57;;;;;;;17.13;10.33;;;11.20;99.90;;;;;;4428619;28;659608;-75
2023/05/20 04:21:45;;;;;;;16.13;10.50;;;11.20;99.90;;;;;;4435051;28;662418;-76
2023/05/20 04:24:32;;;;;;;16.90;10.10;;;11.20;99.90;;;;;;4441660;28;661547;-76
2023/05/20 04:27:22;;;;;;;16.27;9.90;;;11.30;99.90;;;;;;4439504;28;661186;-77
2023/05/20 04:30:10;;;;;;;13.43;9.03;;;11.40;99.90;;;;;;4416231;28;660661;-76
2023/05/20 04:32:57;;;;;;;14.13;9.43;;;11.30;99.90;;;;;;4422797;28;659486;-77
2023/05/20 04:35:47;;;;;;;15.37;10.00;;;11.40;99.90;;;;;;4432409;28;659879;-75
2023/05/20 04:38:34;;;;;;;15.13;9.60;;;11.40;99.90;;;;;;4437697;28;660789;-76
2023/05/20 04:41:22;;;;;;;16.17;9.90;;;11.40;99.90;;;;;;4418987;28;659911;-76
2023/05/20 04:44:12;;;;;;;14.10;9.40;;;11.50;99.90;;;;;;4435980;28;659976;-76
2023/05/20 04:46:59;;;;;;;14.03;9.73;;;11.60;99.90;;;;;;4416329;28;659735;-76
2023/05/20 04:49:46;;;;;;;18.03;10.13;;;11.60;99.90;;;;;;4421203;28;659493;-76
2023/05/20 04:52:33;;;;;;;13.73;9.53;;;11.60;99.90;;;;;;4438530;28;661466;-76
2023/05/20 04:55:23;;;;;;;16.67;10.37;;;11.60;99.90;;;;;;4420250;28;659149;-77
2023/05/20 04:58:14;;;;;;;17.10;11.13;;;11.70;99.90;;;;;;4417070;28;661830;-76
2023/05/20 05:01:02;;;;;;;14.60;10.07;;;11.70;99.90;;;;;;4415680;28;660515;-75
2023/05/20 05:03:49;;;;;;;16.20;10.50;;;11.70;99.90;;;;;;4436087;28;661034;-76
2023/05/20 05:06:36;;;;;;;16.60;11.03;;;11.80;99.90;;;;;;4417885;28;661132;-76
2023/05/20 05:09:24;;;;;;;15.73;10.00;;;11.90;99.90;;;;;;4440228;28;661843;-76
2023/05/20 05:12:11;;;;;;;16.23;10.80;;;12.00;99.90;;;;;;4417341;28;661030;-75
2023/05/20 05:14:58;;;;;;;18.17;10.07;;;12.10;99.90;;;;;;4434503;28;661051;-77
2023/05/20 05:17:47;;;;;;;15.20;10.57;;;12.20;99.90;;;;;;4413709;28;660893;-75
2023/05/20 05:20:34;;;;;;;17.60;10.83;;;12.10;99.90;;;;;;4439491;28;660764;-76
2023/05/20 05:23:21;;;;;;;12.40;8.87;;;12.20;99.90;;;;;;4418037;28;661398;-75
2023/05/20 05:26:08;;;;;;;18.80;10.27;;;12.30;99.90;;;;;;4436492;28;660811;-76
2023/05/20 05:28:56;;;;;;;15.47;10.43;;;12.30;99.90;;;;;;4418138;28;660779;-76
2023/05/20 05:31:43;;;;;;;15.70;10.40;;;12.30;99.90;;;;;;4445287;28;662144;-76
2023/05/20 05:34:31;;;;;;;17.13;10.33;;;12.40;99.90;;;;;;4415257;28;660917;-75
2023/05/20 05:37:19;;;;;;;19.57;10.70;;;12.50;99.90;;;;;;4439172;28;661625;-76
2023/05/20 05:40:07;;;;;;;17.63;10.50;;;12.60;99.90;;;;;;4419530;28;661008;-76
2023/05/20 05:42:55;;;;;;;16.30;10.53;;;12.70;99.90;;;;;;4435654;28;661062;-76
2023/05/20 05:45:42;;;;;;;25.40;11.60;;;12.80;99.90;;;;;;4439669;28;660548;-75
2023/05/20 05:48:29;;;;;;;20.87;11.77;;;12.80;99.90;;;;;;4443966;28;660678;-77
2023/05/20 05:51:18;;;;;;;23.10;11.40;;;12.80;99.90;;;;;;4421323;28;661122;-75
2023/05/20 05:54:05;;;;;;;21.27;11.73;;;12.90;99.90;;;;;;4419113;28;660703;-76
2023/05/20 05:56:53;;;;;;;26.20;13.70;;;12.90;99.90;;;;;;4441794;28;661715;-76
2023/05/20 05:59:40;;;;;;;21.98;12.52;;;13.00;99.90;;;;;;4424591;28;660857;-76
2023/05/20 06:02:27;;;;;;;22.83;12.80;;;13.10;99.90;;;;;;4438403;28;661439;-77
2023/05/20 06:05:15;;;;;;;23.43;13.10;;;13.10;99.90;;;;;;4436110;28;660576;-74
2023/05/20 06:08:04;;;;;;;24.30;13.03;;;13.30;99.90;;;;;;4443603;28;660734;-75
2023/05/20 06:10:51;;;;;;;25.90;13.87;;;13.30;99.90;;;;;;4416877;28;660657;-76
2023/05/20 06:13:39;;;;;;;20.03;12.57;;;13.50;99.90;;;;;;4441991;28;661334;-70
2023/05/20 06:16:26;;;;;;;24.57;13.23;;;13.50;99.90;;;;;;4421295;28;660669;-74
2023/05/20 06:19:13;;;;;;;23.70;13.13;;;13.60;99.90;;;;;;4445210;28;661134;-75
2023/05/20 06:22:00;;;;;;;26.27;13.73;;;13.60;99.90;;;;;;4421528;28;660457;-71
2023/05/20 06:24:49;;;;;;;25.83;13.40;;;13.70;99.90;;;;;;4446872;28;660496;-75
2023/05/20 06:27:36;;;;;;;25.03;13.33;;;13.70;99.90;;;;;;4421712;28;661913;-73
2023/05/20 06:30:23;;;;;;;30.13;14.43;;;13.80;99.90;;;;;;4439083;28;662052;-73
2023/05/20 06:33:10;;;;;;;24.90;13.73;;;13.70;99.90;;;;;;4421376;28;660784;-72
2023/05/20 06:36:00;;;;;;;24.57;14.33;;;13.90;99.90;;;;;;4447294;28;661931;-74
2023/05/20 06:38:47;;;;;;;24.10;13.10;;;14.00;99.90;;;;;;4423767;28;661331;-74
2023/05/20 06:41:36;;;;;;;25.77;13.73;;;14.10;99.90;;;;;;4441190;28;661058;-74
2023/05/20 06:44:23;;;;;;;23.60;13.33;;;14.20;99.90;;;;;;4418872;28;662034;-72
2023/05/20 06:47:10;;;;;;;21.93;11.97;;;14.30;99.90;;;;;;4422088;28;661625;-71
2023/05/20 06:49:57;;;;;;;26.07;13.70;;;14.30;99.90;;;;;;4441252;28;661390;-75
2023/05/20 06:52:44;;;;;;;25.50;13.40;;;14.40;99.90;;;;;;4442982;28;660171;-73
2023/05/20 06:55:32;;;;;;;22.93;12.97;;;14.40;99.90;;;;;;4417045;28;660929;-74
2023/05/20 06:58:20;;;;;;;26.87;13.67;;;14.50;99.90;;;;;;4440707;28;660484;-73
2023/05/20 07:01:08;;;;;;;23.80;13.90;;;14.40;99.90;;;;;;4415832;28;661987;-75
2023/05/20 07:03:55;;;;;;;24.37;13.17;;;14.50;99.90;;;;;;4432340;28;660835;-71
2023/05/20 07:06:43;;;;;;;24.83;14.20;;;14.50;99.90;;;;;;4438807;28;662384;-75
2023/05/20 07:09:30;;;;;;;24.63;13.30;;;14.60;99.90;;;;;;4430003;28;661348;-70
2023/05/20 07:12:17;;;;;;;21.83;13.40;;;14.60;99.90;;;;;;4442355;28;661298;-75
2023/05/20 07:15:07;;;;;;;24.33;13.37;;;14.60;99.90;;;;;;4444002;28;661504;-75
2023/05/20 07:17:54;;;;;;;22.83;13.43;;;14.60;99.90;;;;;;4417494;28;660721;-74
2023/05/20 07:20:42;;;;;;;25.23;14.57;;;14.60;99.90;;;;;;4415794;28;660869;-72
2023/05/20 07:23:29;;;;;;;31.53;16.27;;;14.50;99.90;;;;;;4434571;28;660903;-71
2023/05/20 07:26:16;;;;;;;27.40;15.20;;;14.40;99.90;;;;;;4417653;28;660755;-74
2023/05/20 07:29:03;;;;;;;26.42;14.88;;;14.60;99.90;;;;;;4438625;28;661861;-74
2023/05/20 07:31:52;;;;;;;25.03;14.03;;;14.60;99.90;;;;;;4415833;28;660587;-70
2023/05/20 07:34:39;;;;;;;24.37;12.47;;;14.70;99.90;;;;;;4436695;28;661069;-75
2023/05/20 07:37:26;;;;;;;29.50;15.67;;;14.70;99.90;;;;;;4418073;28;662261;-74
2023/05/20 07:40:14;;;;;;;26.63;15.80;;;14.60;99.90;;;;;;4443406;28;660707;-75
2023/05/20 07:43:01;;;;;;;27.90;17.57;;;14.70;99.90;;;;;;4418830;28;660749;-75
2023/05/20 07:45:48;;;;;;;27.60;15.93;;;14.70;99.90;;;;;;4438501;28;661766;-74
2023/05/20 07:48:37;;;;;;;27.43;16.00;;;14.80;99.90;;;;;;4417527;28;660736;-74
2023/05/20 07:51:24;;;;;;;25.27;14.27;;;15.00;99.90;;;;;;4438366;28;660211;-75
2023/05/20 07:54:11;;;;;;;25.07;15.40;;;14.90;99.90;;;;;;4417630;28;660868;-73
2023/05/20 07:56:59;;;;;;;31.80;15.20;;;14.90;99.90;;;;;;4438118;28;661371;-75
2023/05/20 07:59:47;;;;;;;28.90;16.47;;;14.90;99.90;;;;;;4426485;28;661379;-75
2023/05/20 08:02:34;;;;;;;24.13;14.60;;;14.80;99.90;;;;;;4442582;28;661594;-74
2023/05/20 08:05:22;;;;;;;33.17;16.17;;;14.90;99.90;;;;;;4417459;28;660748;-74
2023/05/20 08:08:10;;;;;;;25.33;15.17;;;15.00;99.90;;;;;;4441449;28;660495;-74
2023/05/20 08:10:57;;;;;;;28.87;16.83;;;15.20;99.90;;;;;;4418403;28;662547;-73
2023/05/20 08:13:44;;;;;;;27.50;16.07;;;15.20;99.90;;;;;;4429238;28;660844;-75
2023/05/20 08:16:31;;;;;;;29.63;16.40;;;15.20;99.90;;;;;;4419600;28;660616;-75
2023/05/20 08:19:18;;;;;;;26.67;16.07;;;15.20;99.90;;;;;;4438620;28;661120;-74
2023/05/20 08:22:07;;;;;;;26.33;14.63;;;15.20;99.90;;;;;;4422672;28;660695;-74
2023/05/20 08:24:54;;;;;;;23.37;14.63;;;15.20;99.90;;;;;;4440378;28;660689;-74
2023/05/20 08:27:41;;;;;;;26.60;14.03;;;15.30;99.90;;;;;;4417607;28;661755;-73
2023/05/20 08:30:29;;;;;;;22.20;13.50;;;15.20;99.90;;;;;;4441095;28;660894;-74
2023/05/20 08:33:18;;;;;;;21.70;13.83;;;15.20;99.90;;;;;;4382168;28;660901;-71
2023/05/20 08:36:07;;;;;;;22.63;14.07;;;15.40;99.90;;;;;;4245998;28;660805;-71
2023/05/20 08:38:55;;;;;;;24.20;14.27;;;15.50;99.90;;;;;;4262553;28;661583;-70
2023/05/20 08:41:43;;;;;;;26.50;13.77;;;15.70;99.90;;;;;;4389002;28;661212;-74
2023/05/20 08:44:30;;;;;;;20.93;13.77;;;15.60;99.90;;;;;;4435749;28;660637;-73
2023/05/20 08:47:17;;;;;;;23.77;13.40;;;15.90;99.90;;;;;;4440222;28;661726;-71
2023/05/20 08:50:06;;;;;;;24.50;13.60;;;16.10;99.90;;;;;;4438378;28;661354;-74
2023/05/20 08:52:53;;;;;;;21.13;12.70;;;16.10;99.90;;;;;;4437902;28;661402;-74
2023/05/20 08:55:43;;;;;;;19.50;12.80;;;16.40;99.90;;;;;;4421260;28;660808;-72
2023/05/20 08:58:31;;;;;;;19.40;12.70;;;16.50;99.90;;;;;;4417628;28;660482;-71
2023/05/20 09:01:18;;;;;;;25.03;13.37;;;16.70;99.90;;;;;;4440472;28;661997;-74
2023/05/20 09:04:06;;;;;;;23.77;13.87;;;16.70;99.90;;;;;;4415995;28;660866;-72
2023/05/20 09:06:54;;;;;;;28.10;14.70;;;16.80;99.90;;;;;;4434239;28;660916;-74
2023/05/20 09:09:41;;;;;;;24.13;15.00;;;16.80;99.90;;;;;;4411484;28;660990;-74
2023/05/20 09:12:30;;;;;;;24.37;14.67;;;17.00;99.90;;;;;;4441730;28;661789;-73
2023/05/20 09:15:17;;;;;;;23.97;14.57;;;17.00;99.90;;;;;;4416154;28;661705;-74
2023/05/20 09:18:05;;;;;;;25.67;14.97;;;17.10;99.90;;;;;;4437431;28;660681;-74
2023/05/20 09:20:52;;;;;;;22.17;14.60;;;17.20;99.90;;;;;;4420238;28;661275;-73
2023/05/20 09:23:40;;;;;;;23.23;14.93;;;17.30;99.90;;;;;;4430667;28;661548;-72
2023/05/20 09:26:27;;;;;;;24.03;15.13;;;17.40;99.90;;;;;;4409722;28;661827;-74
2023/05/20 09:29:18;;;;;;;27.50;15.93;;;17.50;99.90;;;;;;4436158;28;661120;-70
2023/05/20 09:32:06;;;;;;;29.57;16.57;;;17.60;99.90;;;;;;4419446;28;660692;-72
2023/05/20 09:34:53;;;;;;;27.40;16.37;;;17.60;99.90;;;;;;4443922;28;661320;-75
2023/05/20 09:37:41;;;;;;;33.63;18.13;;;17.60;99.90;;;;;;4415809;28;660563;-73
2023/05/20 09:40:29;;;;;;;27.63;16.50;;;17.50;99.90;;;;;;4435277;28;661024;-74
2023/05/20 09:43:17;;;;;;;28.93;18.00;;;17.60;99.90;;;;;;4418891;28;660396;-73
2023/05/20 09:46:05;;;;;;;33.80;17.93;;;17.70;99.90;;;;;;4436597;28;660833;-72
2023/05/20 09:48:53;;;;;;;33.27;17.60;;;17.80;99.90;;;;;;4412330;28;661275;-74
2023/05/20 09:51:41;;;;;;;35.00;18.77;;;17.80;99.90;;;;;;4433836;28;660949;-72
2023/05/20 09:54:28;;;;;;;32.20;18.30;;;17.70;99.90;;;;;;4437912;28;661791;-74
2023/05/20 09:57:15;;;;;;;33.60;18.80;;;17.70;99.90;;;;;;4409983;28;660907;-74
2023/05/20 10:00:03;;;;;;;35.43;20.17;;;17.90;99.90;;;;;;4426662;28;661721;-74
2023/05/20 10:02:52;;;;;;;40.63;20.00;;;17.60;99.90;;;;;;4415435;28;660876;-73
2023/05/20 10:05:41;;;;;;;37.17;20.42;;;17.40;99.90;;;;;;4430323;28;660853;-74
2023/05/20 10:08:54;;;;;;;46.07;20.93;;;17.30;99.90;;;;;;4417821;28;661681;-74
2023/05/20 10:11:45;;;;;;;40.47;20.70;;;17.20;99.90;;;;;;4417847;28;660429;-73
2023/05/20 10:14:39;;;;;;;39.07;21.07;;;17.10;99.90;;;;;;4416067;28;661464;-74
2023/05/20 10:17:30;;;;;;;36.10;20.93;;;17.40;99.90;;;;;;4415770;28;661216;-74
2023/05/20 10:20:18;;;;;;;39.53;21.97;;;17.70;99.90;;;;;;4408287;28;661822;-73
2023/05/20 10:23:05;;;;;;;41.17;20.87;;;17.90;99.90;;;;;;4415780;28;661052;-73
2023/05/20 10:25:53;;;;;;;36.67;20.33;;;18.10;99.90;;;;;;4430531;28;661962;-75
2023/05/20 10:28:40;;;;;;;35.65;21.08;;;18.10;99.90;;;;;;4416330;28;661028;-71
2023/05/20 10:31:28;;;;;;;35.57;20.20;;;18.30;99.90;;;;;;4443468;28;661924;-74
2023/05/20 10:34:16;;;;;;;35.50;20.93;;;18.40;99.90;;;;;;4425863;28;661250;-71
2023/05/20 10:37:05;;;;;;;38.70;21.83;;;18.30;99.90;;;;;;4438899;28;661416;-74
2023/05/20 10:39:52;;;;;;;35.30;20.63;;;18.50;99.90;;;;;;4432898;28;660486;-75
2023/05/20 10:42:39;;;;;;;34.50;20.23;;;18.60;99.90;;;;;;4445103;28;661112;-73
2023/05/20 10:45:27;;;;;;;34.60;20.07;;;18.70;99.90;;;;;;4413487;28;660922;-74
2023/05/20 10:48:20;;;;;;;37.25;19.98;;;18.80;99.90;;;;;;4433266;28;661590;-74
2023/05/20 10:51:14;;;;;;;34.13;19.40;;;19.10;99.90;;;;;;4389079;28;661540;-74
2023/05/20 10:54:02;;;;;;;31.47;19.20;;;19.40;99.90;;;;;;4409170;28;660879;-74
2023/05/20 10:56:53;;;;;;;36.20;19.53;;;19.60;99.90;;;;;;4420611;28;661011;-71
2023/05/20 10:59:41;;;;;;;32.03;19.07;;;19.60;99.90;;;;;;4416479;28;660582;-72
2023/05/20 11:02:28;;;;;;;30.37;18.63;;;19.90;99.90;;;;;;4444043;28;661108;-75
2023/05/20 11:05:15;;;;;;;36.83;20.53;;;20.10;99.90;;;;;;4418936;28;661276;-71
2023/05/20 11:08:03;;;;;;;38.37;20.93;;;20.50;99.90;;;;;;4439860;28;660433;-71
2023/05/20 11:10:52;;;;;;;33.93;19.37;;;20.50;99.90;;;;;;4421166;28;660786;-71
2023/05/20 11:13:39;;;;;;;33.20;19.30;;;20.60;99.90;;;;;;4442596;28;660565;-73
2023/05/20 11:16:26;;;;;;;29.97;18.83;;;20.60;99.90;;;;;;4415273;28;660944;-73
2023/05/20 11:19:15;;;;;;;35.00;20.03;;;20.20;99.90;;;;;;4442042;28;661302;-73
2023/05/20 11:22:02;;;;;;;33.10;19.13;;;20.30;99.90;;;;;;4403851;28;661307;-74
2023/05/20 11:24:49;;;;;;;33.53;19.63;;;20.70;99.90;;;;;;4434848;28;660448;-70
2023/05/20 11:27:40;;;;;;;32.63;19.60;;;20.20;99.90;;;;;;4415870;28;660384;-73
2023/05/20 11:30:27;;;;;;;38.77;19.47;;;20.30;99.90;;;;;;4422714;28;661189;-75
2023/05/20 11:33:16;;;;;;;35.37;18.70;;;20.40;99.90;;;;;;4432467;28;660655;-71
2023/05/20 11:36:04;;;;;;;32.63;18.87;;;20.70;99.90;;;;;;4425369;28;661764;-73
2023/05/20 11:38:51;;;;;;;30.60;17.97;;;21.20;99.90;;;;;;4411961;28;660902;-70
2023/05/20 11:41:39;;;;;;;37.33;18.37;;;21.40;99.90;;;;;;4436338;28;660761;-72
2023/05/20 11:44:27;;;;;;;29.27;18.23;;;21.80;99.90;;;;;;4413918;28;660843;-74
2023/05/20 11:47:14;;;;;;;32.33;18.27;;;22.00;99.90;;;;;;4436155;28;661240;-75
2023/05/20 11:50:03;;;;;;;33.55;19.25;;;22.70;99.90;;;;;;4420184;28;662359;-75
2023/05/20 11:52:57;;;;;;;34.30;17.40;;;22.50;99.90;;;;;;4416971;28;660816;-72
2023/05/20 11:55:45;;;;;;;30.80;17.87;;;22.40;99.90;;;;;;4417311;28;661405;-74
2023/05/20 11:58:32;;;;;;;29.42;18.40;;;22.30;99.90;;;;;;4414660;28;661388;-74
2023/05/20 12:01:22;;;;;;;28.27;17.00;;;22.40;99.90;;;;;;4441846;28;661496;-73
2023/05/20 12:04:09;;;;;;;33.10;17.75;;;22.60;99.90;;;;;;4438017;28;660514;-74
2023/05/20 12:06:56;;;;;;;27.60;17.23;;;22.10;99.90;;;;;;4420527;28;660568;-73
2023/05/20 12:09:43;;;;;;;27.35;17.17;;;22.40;99.90;;;;;;4437931;28;661098;-74
2023/05/20 12:12:31;;;;;;;27.63;17.73;;;22.60;99.90;;;;;;4413118;28;660589;-73
2023/05/20 12:15:18;;;;;;;28.48;16.85;;;23.00;99.90;;;;;;4437989;28;661221;-74
2023/05/20 12:18:07;;;;;;;25.02;16.88;;;23.20;99.90;;;;;;4416926;28;660832;-72
2023/05/20 12:20:54;;;;;;;27.90;16.65;;;23.20;99.90;;;;;;4441593;28;661016;-74
2023/05/20 12:23:41;;;;;;;27.85;17.02;;;23.10;99.90;;;;;;4420301;28;660977;-71
2023/05/20 12:26:29;;;;;;;26.75;16.30;;;23.30;99.90;;;;;;4436519;28;660930;-75
2023/05/20 12:29:16;;;;;;;26.27;16.27;;;23.50;99.90;;;;;;4411565;28;660489;-73
2023/05/20 12:32:03;;;;;;;24.95;15.80;;;23.70;99.90;;;;;;4438593;28;661063;-75
2023/05/20 12:34:52;;;;;;;25.13;15.57;;;24.00;99.90;;;;;;4413427;28;661114;-75
2023/05/20 12:37:40;;;;;;;27.02;16.00;;;24.30;99.90;;;;;;4442106;28;661296;-73
2023/05/20 12:40:27;;;;;;;25.20;15.98;;;24.60;99.90;;;;;;4409172;28;661602;-74
2023/05/20 12:43:15;;;;;;;29.10;15.18;;;24.70;99.90;;;;;;4435362;28;661243;-75
2023/05/20 12:46:02;;;;;;;28.38;15.77;;;24.80;99.90;;;;;;4417189;28;661789;-75
2023/05/20 12:48:49;;;;;;;23.80;15.13;;;24.60;99.90;;;;;;4438724;28;661117;-74
2023/05/20 12:51:38;;;;;;;30.95;16.13;;;24.60;99.90;;;;;;4411232;28;661498;-75
2023/05/20 12:54:26;;;;;;;25.10;15.30;;;24.70;99.90;;;;;;4422899;28;660874;-73
2023/05/20 12:57:14;;;;;;;23.15;14.88;;;25.00;99.90;;;;;;4432982;28;661053;-76
2023/05/20 13:00:01;;;;;;;22.45;14.60;;;24.90;99.90;;;;;;4414194;28;660497;-75
2023/05/20 13:02:48;;;;;;;29.75;15.20;;;24.90;99.90;;;;;;4437952;28;660824;-76
2023/05/20 13:05:35;;;;;;;26.50;15.10;;;25.00;99.90;;;;;;4406615;28;660651;-73
2023/05/20 13:08:24;;;;;;;26.95;14.82;;;25.40;99.90;;;;;;4441676;28;661570;-75
2023/05/20 13:11:12;;;;;;;23.02;15.43;;;25.40;99.90;;;;;;4415362;28;661721;-76
2023/05/20 13:13:59;;;;;;;23.23;14.63;;;25.00;99.90;;;;;;4427586;28;660379;-76
2023/05/20 13:16:46;;;;;;;25.50;15.40;;;25.00;99.90;;;;;;4406558;28;660136;-75
2023/05/20 13:19:33;;;;;;;24.92;14.55;;;25.40;99.90;;;;;;4435690;28;660713;-75
2023/05/20 13:22:20;;;;;;;24.92;15.32;;;25.30;99.90;;;;;;4424324;28;660552;-74
2023/05/20 13:25:09;;;;;;;22.90;15.20;;;25.30;99.90;;;;;;4446149;28;661575;-76
2023/05/20 13:27:57;;;;;;;24.38;14.75;;;25.60;99.90;;;;;;4413952;28;661631;-76
2023/05/20 13:30:44;;;;;;;23.15;14.68;;;25.60;99.90;;;;;;4440032;28;661161;-75
2023/05/20 13:33:31;;;;;;;22.33;14.35;;;25.50;99.90;;;;;;4423720;28;661225;-75
2023/05/20 13:36:18;;;;;;;30.13;14.70;;;25.50;99.90;;;;;;4442200;28;661385;-74
2023/05/20 13:39:05;;;;;;;26.27;13.32;;;25.20;99.90;;;;;;4420643;28;660603;-74
2023/05/20 13:41:54;;;;;;;22.40;14.15;;;25.70;99.90;;;;;;4441703;28;661410;-75
2023/05/20 13:44:41;;;;;;;18.35;13.48;;;25.90;99.90;;;;;;4423284;28;660969;-75
2023/05/20 13:47:28;;;;;;;22.60;12.18;;;25.90;99.90;;;;;;4435346;28;660717;-76
2023/05/20 13:50:16;;;;;;;18.17;12.73;;;26.10;99.90;;;;;;4410501;28;660553;-75
2023/05/20 13:53:03;;;;;;;19.65;13.48;;;26.20;99.90;;;;;;4447901;28;661327;-77
2023/05/20 13:55:50;;;;;;;22.48;13.02;;;26.20;99.90;;;;;;4423978;28;661191;-74
2023/05/20 13:58:39;;;;;;;22.50;13.13;;;26.30;99.90;;;;;;4439254;28;662380;-76
2023/05/20 14:01:27;;;;;;;20.42;12.55;;;26.10;99.90;;;;;;4425004;28;661152;-75